sensor_id;sensor_type;location;lat;lon;timestamp;temperature;humidity
25346;DHT22;13300;51.032;3.710;2023-08-06T00:00:09;15.60;99.90
25346;DHT22;13300;51.032;3.710;2023-08-06T00:02:35;15.70;99.90
25346;DHT22;13300;51.032;3.710;2023-08-06T00:05:00;15.70;99.90
25346;DHT22;13300;51.032;3.710;2023-08-06T00:07:26;15.70;99.90
25346;DHT22;13300;51.032;3.710;2023-08-06T00:09:52;15.70;99.90
25346;DHT22;13300;51.032;3.710;2023-08-06T00:12:17;15.80;99.90
25346;DHT22;13300;51.032;3.710;2023-08-06T00:14:43;15.80;99.90
25346;DHT22;13300;51.032;3.710;2023-08-06T00:17:09;15.80;99.90
25346;DHT22;13300;51.032;3.710;2023-08-06T00:19:34;15.70;99.90
25346;DHT22;13300;51.032;3.710;2023-08-06T00:22:00;15.60;99.90
25346;DHT22;13300;51.032;3.710;2023-08-06T00:24:27;15.70;99.90
25346;DHT22;13300;51.032;3.710;2023-08-06T00:26:52;15.70;99.90
25346;DHT22;13300;51.032;3.710;2023-08-06T00:29:21;15.70;99.90
25346;DHT22;13300;51.032;3.710;2023-08-06T00:31:47;15.80;99.90
25346;DHT22;13300;51.032;3.710;2023-08-06T00:34:12;15.80;99.90
25346;DHT22;13300;51.032;3.710;2023-08-06T00:36:41;15.80;99.90
25346;DHT22;13300;51.032;3.710;2023-08-06T00:39:09;15.80;99.90
25346;DHT22;13300;51.032;3.710;2023-08-06T00:41:35;15.80;99.90
25346;DHT22;13300;51.032;3.710;2023-08-06T00:44:00;15.80;99.90
25346;DHT22;13300;51.032;3.710;2023-08-06T00:46:26;15.90;99.90
25346;DHT22;13300;51.032;3.710;2023-08-06T00:48:52;15.90;99.90
25346;DHT22;13300;51.032;3.710;2023-08-06T00:51:17;16.00;99.90
25346;DHT22;13300;51.032;3.710;2023-08-06T00:53:44;16.00;99.90
25346;DHT22;13300;51.032;3.710;2023-08-06T00:56:10;16.00;99.90
25346;DHT22;13300;51.032;3.710;2023-08-06T00:58:38;16.10;99.90
25346;DHT22;13300;51.032;3.710;2023-08-06T01:01:04;16.10;99.90
25346;DHT22;13300;51.032;3.710;2023-08-06T01:03:30;16.10;99.90
25346;DHT22;13300;51.032;3.710;2023-08-06T01:05:55;16.20;99.90
25346;DHT22;13300;51.032;3.710;2023-08-06T01:14:37;16.30;99.90
25346;DHT22;13300;51.032;3.710;2023-08-06T01:16:42;16.20;99.90
25346;DHT22;13300;51.032;3.710;2023-08-06T01:19:18;16.20;99.90
25346;DHT22;13300;51.032;3.710;2023-08-06T01:21:43;16.20;99.90
25346;DHT22;13300;51.032;3.710;2023-08-06T01:24:09;16.20;99.90
25346;DHT22;13300;51.032;3.710;2023-08-06T01:31:38;16.10;99.90
25346;DHT22;13300;51.032;3.710;2023-08-06T01:34:08;16.00;99.90
25346;DHT22;13300;51.032;3.710;2023-08-06T01:36:35;16.00;99.90
25346;DHT22;13300;51.032;3.710;2023-08-06T01:39:00;16.00;99.90
25346;DHT22;13300;51.032;3.710;2023-08-06T01:41:26;15.90;99.90
25346;DHT22;13300;51.032;3.710;2023-08-06T01:43:51;16.00;99.90
25346;DHT22;13300;51.032;3.710;2023-08-06T01:46:17;16.00;99.90
25346;DHT22;13300;51.032;3.710;2023-08-06T01:48:43;16.00;99.90
25346;DHT22;13300;51.032;3.710;2023-08-06T01:51:08;15.90;99.90
25346;DHT22;13300;51.032;3.710;2023-08-06T01:53:34;15.90;99.90
25346;DHT22;13300;51.032;3.710;2023-08-06T01:55:59;15.90;99.90
25346;DHT22;13300;51.032;3.710;2023-08-06T01:58:25;15.90;99.90
25346;DHT22;13300;51.032;3.710;2023-08-06T02:00:50;15.90;99.90
25346;DHT22;13300;51.032;3.710;2023-08-06T02:03:16;15.80;99.90
25346;DHT22;13300;51.032;3.710;2023-08-06T02:05:41;15.80;99.90
25346;DHT22;13300;51.032;3.710;2023-08-06T02:08:07;15.70;99.90
25346;DHT22;13300;51.032;3.710;2023-08-06T02:10:33;15.70;99.90
25346;DHT22;13300;51.032;3.710;2023-08-06T02:12:58;15.70;99.90
25346;DHT22;13300;51.032;3.710;2023-08-06T02:15:24;15.70;99.90
25346;DHT22;13300;51.032;3.710;2023-08-06T02:17:49;15.60;99.90
25346;DHT22;13300;51.032;3.710;2023-08-06T02:20:15;15.60;99.90
25346;DHT22;13300;51.032;3.710;2023-08-06T02:22:41;15.50;99.90
25346;DHT22;13300;51.032;3.710;2023-08-06T02:25:06;15.50;99.90
25346;DHT22;13300;51.032;3.710;2023-08-06T02:27:32;15.50;99.90
25346;DHT22;13300;51.032;3.710;2023-08-06T02:29:57;15.50;99.90
25346;DHT22;13300;51.032;3.710;2023-08-06T02:32:23;15.50;99.90
25346;DHT22;13300;51.032;3.710;2023-08-06T02:34:48;15.50;99.90
25346;DHT22;13300;51.032;3.710;2023-08-06T02:37:14;15.40;99.90
25346;DHT22;13300;51.032;3.710;2023-08-06T02:39:39;15.40;99.90
25346;DHT22;13300;51.032;3.710;2023-08-06T02:42:08;15.30;99.90
25346;DHT22;13300;51.032;3.710;2023-08-06T02:44:34;15.20;99.90
25346;DHT22;13300;51.032;3.710;2023-08-06T02:47:00;15.20;99.90
25346;DHT22;13300;51.032;3.710;2023-08-06T02:49:26;15.00;99.90
25346;DHT22;13300;51.032;3.710;2023-08-06T02:51:51;14.90;99.90
25346;DHT22;13300;51.032;3.710;2023-08-06T02:54:20;14.80;99.90
25346;DHT22;13300;51.032;3.710;2023-08-06T02:56:46;14.70;99.90
25346;DHT22;13300;51.032;3.710;2023-08-06T02:59:12;14.60;99.90
25346;DHT22;13300;51.032;3.710;2023-08-06T03:01:37;14.70;99.90
25346;DHT22;13300;51.032;3.710;2023-08-06T03:04:03;14.70;99.90
25346;DHT22;13300;51.032;3.710;2023-08-06T03:06:29;14.70;99.90
25346;DHT22;13300;51.032;3.710;2023-08-06T03:08:54;14.70;99.90
25346;DHT22;13300;51.032;3.710;2023-08-06T03:11:20;14.70;99.90
25346;DHT22;13300;51.032;3.710;2023-08-06T03:13:46;14.70;99.90
25346;DHT22;13300;51.032;3.710;2023-08-06T03:16:12;14.70;99.90
25346;DHT22;13300;51.032;3.710;2023-08-06T03:18:37;14.80;99.90
25346;DHT22;13300;51.032;3.710;2023-08-06T03:21:03;14.80;99.90
25346;DHT22;13300;51.032;3.710;2023-08-06T03:23:28;14.80;99.90
25346;DHT22;13300;51.032;3.710;2023-08-06T03:25:54;14.80;99.90
25346;DHT22;13300;51.032;3.710;2023-08-06T03:28:19;14.90;99.90
25346;DHT22;13300;51.032;3.710;2023-08-06T03:30:45;14.90;99.90
25346;DHT22;13300;51.032;3.710;2023-08-06T03:33:10;15.00;99.90
25346;DHT22;13300;51.032;3.710;2023-08-06T03:35:36;15.00;99.90
25346;DHT22;13300;51.032;3.710;2023-08-06T03:38:02;14.90;99.90
25346;DHT22;13300;51.032;3.710;2023-08-06T03:40:27;14.90;99.90
25346;DHT22;13300;51.032;3.710;2023-08-06T03:42:53;14.90;99.90
25346;DHT22;13300;51.032;3.710;2023-08-06T03:45:18;14.80;99.90
25346;DHT22;13300;51.032;3.710;2023-08-06T03:47:44;14.80;99.90
25346;DHT22;13300;51.032;3.710;2023-08-06T03:50:09;14.80;99.90
25346;DHT22;13300;51.032;3.710;2023-08-06T03:52:35;14.90;99.90
25346;DHT22;13300;51.032;3.710;2023-08-06T03:55:01;14.80;99.90
25346;DHT22;13300;51.032;3.710;2023-08-06T03:57:26;14.80;99.90
25346;DHT22;13300;51.032;3.710;2023-08-06T03:59:52;14.80;99.90
25346;DHT22;13300;51.032;3.710;2023-08-06T04:02:17;14.80;99.90
25346;DHT22;13300;51.032;3.710;2023-08-06T04:04:43;14.80;99.90
25346;DHT22;13300;51.032;3.710;2023-08-06T04:07:08;14.80;99.90
25346;DHT22;13300;51.032;3.710;2023-08-06T04:09:34;14.80;99.90
25346;DHT22;13300;51.032;3.710;2023-08-06T04:11:59;14.80;99.90
25346;DHT22;13300;51.032;3.710;2023-08-06T04:14:27;14.80;99.90
25346;DHT22;13300;51.032;3.710;2023-08-06T04:16:53;14.80;99.90
25346;DHT22;13300;51.032;3.710;2023-08-06T04:19:20;14.80;99.90
25346;DHT22;13300;51.032;3.710;2023-08-06T04:21:45;14.80;99.90
25346;DHT22;13300;51.032;3.710;2023-08-06T04:24:11;14.80;99.90
25346;DHT22;13300;51.032;3.710;2023-08-06T04:26:36;14.80;99.90
25346;DHT22;13300;51.032;3.710;2023-08-06T04:29:02;14.80;99.90
25346;DHT22;13300;51.032;3.710;2023-08-06T04:31:28;14.70;99.90
25346;DHT22;13300;51.032;3.710;2023-08-06T04:33:54;14.80;99.90
25346;DHT22;13300;51.032;3.710;2023-08-06T04:36:19;14.80;99.90
25346;DHT22;13300;51.032;3.710;2023-08-06T04:38:45;14.80;99.90
25346;DHT22;13300;51.032;3.710;2023-08-06T04:41:12;14.80;99.90
25346;DHT22;13300;51.032;3.710;2023-08-06T04:43:38;14.70;99.90
25346;DHT22;13300;51.032;3.710;2023-08-06T04:46:03;14.70;99.90
25346;DHT22;13300;51.032;3.710;2023-08-06T04:48:29;14.80;99.90
25346;DHT22;13300;51.032;3.710;2023-08-06T04:50:54;14.80;99.90
25346;DHT22;13300;51.032;3.710;2023-08-06T04:53:20;14.70;99.90
25346;DHT22;13300;51.032;3.710;2023-08-06T04:55:45;14.70;99.90
25346;DHT22;13300;51.032;3.710;2023-08-06T04:58:12;14.80;99.90
25346;DHT22;13300;51.032;3.710;2023-08-06T05:00:37;14.70;99.90
25346;DHT22;13300;51.032;3.710;2023-08-06T05:03:03;14.70;99.90
25346;DHT22;13300;51.032;3.710;2023-08-06T05:05:28;14.70;99.90
25346;DHT22;13300;51.032;3.710;2023-08-06T05:07:54;14.70;99.90
25346;DHT22;13300;51.032;3.710;2023-08-06T05:10:20;14.80;99.90
25346;DHT22;13300;51.032;3.710;2023-08-06T05:12:46;14.80;99.90
25346;DHT22;13300;51.032;3.710;2023-08-06T05:15:11;14.80;99.90
25346;DHT22;13300;51.032;3.710;2023-08-06T05:17:37;14.70;99.90
25346;DHT22;13300;51.032;3.710;2023-08-06T05:20:03;14.80;99.90
25346;DHT22;13300;51.032;3.710;2023-08-06T05:22:28;14.80;99.90
25346;DHT22;13300;51.032;3.710;2023-08-06T05:24:54;14.80;99.90
25346;DHT22;13300;51.032;3.710;2023-08-06T05:27:19;14.90;99.90
25346;DHT22;13300;51.032;3.710;2023-08-06T05:29:45;14.90;99.90
25346;DHT22;13300;51.032;3.710;2023-08-06T05:32:11;14.90;99.90
25346;DHT22;13300;51.032;3.710;2023-08-06T05:34:36;14.90;99.90
25346;DHT22;13300;51.032;3.710;2023-08-06T05:37:02;14.90;99.90
25346;DHT22;13300;51.032;3.710;2023-08-06T05:39:28;15.00;99.90
25346;DHT22;13300;51.032;3.710;2023-08-06T05:41:54;15.00;99.90
25346;DHT22;13300;51.032;3.710;2023-08-06T05:44:20;15.10;99.90
25346;DHT22;13300;51.032;3.710;2023-08-06T05:46:46;15.00;99.90
25346;DHT22;13300;51.032;3.710;2023-08-06T05:49:11;15.10;99.90
25346;DHT22;13300;51.032;3.710;2023-08-06T05:51:39;15.10;99.90
25346;DHT22;13300;51.032;3.710;2023-08-06T05:54:04;15.00;99.90
25346;DHT22;13300;51.032;3.710;2023-08-06T05:56:30;15.00;99.90
25346;DHT22;13300;51.032;3.710;2023-08-06T05:58:55;15.10;99.90
25346;DHT22;13300;51.032;3.710;2023-08-06T06:01:21;15.20;99.90
25346;DHT22;13300;51.032;3.710;2023-08-06T06:03:47;15.20;99.90
25346;DHT22;13300;51.032;3.710;2023-08-06T06:06:12;15.10;99.90
25346;DHT22;13300;51.032;3.710;2023-08-06T06:08:38;14.90;99.90
25346;DHT22;13300;51.032;3.710;2023-08-06T06:11:03;14.90;99.90
25346;DHT22;13300;51.032;3.710;2023-08-06T06:13:29;14.90;99.90
25346;DHT22;13300;51.032;3.710;2023-08-06T06:15:54;14.90;99.90
25346;DHT22;13300;51.032;3.710;2023-08-06T06:18:21;14.90;99.90
25346;DHT22;13300;51.032;3.710;2023-08-06T06:20:46;14.90;99.90
25346;DHT22;13300;51.032;3.710;2023-08-06T06:23:12;14.90;99.90
25346;DHT22;13300;51.032;3.710;2023-08-06T06:25:41;14.90;99.90
25346;DHT22;13300;51.032;3.710;2023-08-06T06:28:07;14.90;99.90
25346;DHT22;13300;51.032;3.710;2023-08-06T06:30:32;14.80;99.90
25346;DHT22;13300;51.032;3.710;2023-08-06T06:32:58;14.60;99.90
25346;DHT22;13300;51.032;3.710;2023-08-06T06:35:23;14.50;99.90
25346;DHT22;13300;51.032;3.710;2023-08-06T06:37:49;14.50;99.90
25346;DHT22;13300;51.032;3.710;2023-08-06T06:40:14;14.60;99.90
25346;DHT22;13300;51.032;3.710;2023-08-06T06:42:40;14.70;99.90
25346;DHT22;13300;51.032;3.710;2023-08-06T06:45:06;14.80;99.90
25346;DHT22;13300;51.032;3.710;2023-08-06T06:47:31;14.90;99.90
25346;DHT22;13300;51.032;3.710;2023-08-06T06:49:57;15.00;99.90
25346;DHT22;13300;51.032;3.710;2023-08-06T06:52:22;15.10;99.90
25346;DHT22;13300;51.032;3.710;2023-08-06T06:54:48;15.30;99.90
25346;DHT22;13300;51.032;3.710;2023-08-06T06:57:13;15.30;99.90
25346;DHT22;13300;51.032;3.710;2023-08-06T06:59:39;15.20;99.90
25346;DHT22;13300;51.032;3.710;2023-08-06T07:02:05;15.10;99.90
25346;DHT22;13300;51.032;3.710;2023-08-06T07:04:30;15.10;99.90
25346;DHT22;13300;51.032;3.710;2023-08-06T07:06:56;15.10;99.90
25346;DHT22;13300;51.032;3.710;2023-08-06T07:09:21;15.00;99.90
25346;DHT22;13300;51.032;3.710;2023-08-06T07:11:47;15.00;99.90
25346;DHT22;13300;51.032;3.710;2023-08-06T07:14:13;15.10;99.90
25346;DHT22;13300;51.032;3.710;2023-08-06T07:16:39;15.20;99.90
25346;DHT22;13300;51.032;3.710;2023-08-06T07:19:05;15.20;99.90
25346;DHT22;13300;51.032;3.710;2023-08-06T07:21:31;15.30;99.90
25346;DHT22;13300;51.032;3.710;2023-08-06T07:23:56;15.30;99.90
25346;DHT22;13300;51.032;3.710;2023-08-06T07:26:22;15.30;99.90
25346;DHT22;13300;51.032;3.710;2023-08-06T07:28:48;15.40;99.90
25346;DHT22;13300;51.032;3.710;2023-08-06T07:31:13;15.40;99.90
25346;DHT22;13300;51.032;3.710;2023-08-06T07:33:39;15.40;99.90
25346;DHT22;13300;51.032;3.710;2023-08-06T07:36:11;15.40;99.90
25346;DHT22;13300;51.032;3.710;2023-08-06T07:38:37;15.40;99.90
25346;DHT22;13300;51.032;3.710;2023-08-06T07:41:03;15.30;99.90
25346;DHT22;13300;51.032;3.710;2023-08-06T07:43:28;15.30;99.90
25346;DHT22;13300;51.032;3.710;2023-08-06T07:45:54;15.30;99.90
25346;DHT22;13300;51.032;3.710;2023-08-06T07:48:19;15.30;99.90
25346;DHT22;13300;51.032;3.710;2023-08-06T07:50:45;15.40;99.90
25346;DHT22;13300;51.032;3.710;2023-08-06T07:53:15;15.40;99.90
25346;DHT22;13300;51.032;3.710;2023-08-06T07:55:41;15.50;99.90
25346;DHT22;13300;51.032;3.710;2023-08-06T07:58:06;15.60;99.90
25346;DHT22;13300;51.032;3.710;2023-08-06T08:00:32;15.90;99.90
25346;DHT22;13300;51.032;3.710;2023-08-06T08:02:58;16.10;99.90
25346;DHT22;13300;51.032;3.710;2023-08-06T08:05:24;16.20;99.90
25346;DHT22;13300;51.032;3.710;2023-08-06T08:07:49;16.30;99.90
25346;DHT22;13300;51.032;3.710;2023-08-06T08:10:15;16.40;99.90
25346;DHT22;13300;51.032;3.710;2023-08-06T08:12:40;16.50;99.90
25346;DHT22;13300;51.032;3.710;2023-08-06T08:15:06;16.40;99.90
25346;DHT22;13300;51.032;3.710;2023-08-06T08:17:32;16.40;99.90
25346;DHT22;13300;51.032;3.710;2023-08-06T08:19:58;16.30;99.90
25346;DHT22;13300;51.032;3.710;2023-08-06T08:22:23;16.30;99.90
25346;DHT22;13300;51.032;3.710;2023-08-06T08:24:49;16.20;99.90
25346;DHT22;13300;51.032;3.710;2023-08-06T08:27:15;16.30;99.90
25346;DHT22;13300;51.032;3.710;2023-08-06T08:29:40;16.30;99.90
25346;DHT22;13300;51.032;3.710;2023-08-06T08:32:06;16.30;99.90
25346;DHT22;13300;51.032;3.710;2023-08-06T08:34:31;16.20;99.90
25346;DHT22;13300;51.032;3.710;2023-08-06T08:36:57;16.00;99.90
25346;DHT22;13300;51.032;3.710;2023-08-06T08:39:23;15.90;99.90
25346;DHT22;13300;51.032;3.710;2023-08-06T08:41:49;16.00;99.90
25346;DHT22;13300;51.032;3.710;2023-08-06T08:44:15;16.10;99.90
25346;DHT22;13300;51.032;3.710;2023-08-06T08:46:41;16.00;99.90
25346;DHT22;13300;51.032;3.710;2023-08-06T08:49:08;15.90;99.90
25346;DHT22;13300;51.032;3.710;2023-08-06T08:51:34;15.70;99.90
25346;DHT22;13300;51.032;3.710;2023-08-06T08:54:03;15.60;99.90
25346;DHT22;13300;51.032;3.710;2023-08-06T08:56:29;15.60;99.90
25346;DHT22;13300;51.032;3.710;2023-08-06T08:58:54;15.60;99.90
25346;DHT22;13300;51.032;3.710;2023-08-06T09:01:21;15.60;99.90
25346;DHT22;13300;51.032;3.710;2023-08-06T09:03:47;15.60;99.90
25346;DHT22;13300;51.032;3.710;2023-08-06T09:06:13;15.60;99.90
25346;DHT22;13300;51.032;3.710;2023-08-06T09:08:43;15.80;99.90
25346;DHT22;13300;51.032;3.710;2023-08-06T09:11:12;15.90;99.90
25346;DHT22;13300;51.032;3.710;2023-08-06T09:13:38;15.90;99.90
25346;DHT22;13300;51.032;3.710;2023-08-06T09:16:04;16.00;99.90
25346;DHT22;13300;51.032;3.710;2023-08-06T09:18:30;16.00;99.90
25346;DHT22;13300;51.032;3.710;2023-08-06T09:20:56;15.80;99.90
25346;DHT22;13300;51.032;3.710;2023-08-06T09:23:27;15.80;99.90
25346;DHT22;13300;51.032;3.710;2023-08-06T09:25:53;15.80;99.90
25346;DHT22;13300;51.032;3.710;2023-08-06T09:28:18;15.70;99.90
25346;DHT22;13300;51.032;3.710;2023-08-06T09:30:44;15.70;99.90
25346;DHT22;13300;51.032;3.710;2023-08-06T09:33:14;15.60;99.90
25346;DHT22;13300;51.032;3.710;2023-08-06T09:35:42;15.60;99.90
25346;DHT22;13300;51.032;3.710;2023-08-06T09:38:08;15.50;99.90
25346;DHT22;13300;51.032;3.710;2023-08-06T09:40:35;15.50;99.90
25346;DHT22;13300;51.032;3.710;2023-08-06T09:43:01;15.50;99.90
25346;DHT22;13300;51.032;3.710;2023-08-06T09:45:45;15.50;99.90
25346;DHT22;13300;51.032;3.710;2023-08-06T09:48:11;15.40;99.90
25346;DHT22;13300;51.032;3.710;2023-08-06T09:50:37;15.30;99.90
25346;DHT22;13300;51.032;3.710;2023-08-06T09:53:07;15.00;99.90
25346;DHT22;13300;51.032;3.710;2023-08-06T09:55:33;14.90;99.90
25346;DHT22;13300;51.032;3.710;2023-08-06T09:57:59;14.80;99.90
25346;DHT22;13300;51.032;3.710;2023-08-06T10:00:25;14.70;99.90
25346;DHT22;13300;51.032;3.710;2023-08-06T10:02:51;14.80;99.90
25346;DHT22;13300;51.032;3.710;2023-08-06T10:05:20;14.90;99.90
25346;DHT22;13300;51.032;3.710;2023-08-06T10:07:45;15.20;99.90
25346;DHT22;13300;51.032;3.710;2023-08-06T10:10:12;15.70;99.90
25346;DHT22;13300;51.032;3.710;2023-08-06T10:12:39;16.40;99.90
25346;DHT22;13300;51.032;3.710;2023-08-06T10:15:08;16.80;99.90
25346;DHT22;13300;51.032;3.710;2023-08-06T10:17:35;17.10;99.90
25346;DHT22;13300;51.032;3.710;2023-08-06T10:20:02;17.40;99.90
25346;DHT22;13300;51.032;3.710;2023-08-06T10:22:29;17.20;99.90
25346;DHT22;13300;51.032;3.710;2023-08-06T10:24:58;17.30;99.90
25346;DHT22;13300;51.032;3.710;2023-08-06T10:32:56;16.80;99.90
25346;DHT22;13300;51.032;3.710;2023-08-06T10:35:38;16.90;99.90
25346;DHT22;13300;51.032;3.710;2023-08-06T10:40:35;17.40;99.90
25346;DHT22;13300;51.032;3.710;2023-08-06T10:43:01;17.60;99.90
25346;DHT22;13300;51.032;3.710;2023-08-06T10:45:34;17.70;99.90
25346;DHT22;13300;51.032;3.710;2023-08-06T10:47:59;17.60;99.90
25346;DHT22;13300;51.032;3.710;2023-08-06T10:50:25;17.50;99.90
25346;DHT22;13300;51.032;3.710;2023-08-06T10:52:51;17.30;99.90
25346;DHT22;13300;51.032;3.710;2023-08-06T10:55:24;17.10;99.90
25346;DHT22;13300;51.032;3.710;2023-08-06T10:57:50;16.80;99.90
25346;DHT22;13300;51.032;3.710;2023-08-06T11:00:15;16.50;99.90
25346;DHT22;13300;51.032;3.710;2023-08-06T11:02:41;16.30;99.90
25346;DHT22;13300;51.032;3.710;2023-08-06T11:05:07;16.10;99.90
25346;DHT22;13300;51.032;3.710;2023-08-06T11:07:33;15.90;99.90
25346;DHT22;13300;51.032;3.710;2023-08-06T11:10:06;15.70;99.90
25346;DHT22;13300;51.032;3.710;2023-08-06T11:12:32;15.60;99.90
25346;DHT22;13300;51.032;3.710;2023-08-06T11:14:59;15.60;99.90
25346;DHT22;13300;51.032;3.710;2023-08-06T11:17:24;15.60;99.90
25346;DHT22;13300;51.032;3.710;2023-08-06T11:19:51;15.60;99.90
25346;DHT22;13300;51.032;3.710;2023-08-06T11:22:17;15.60;99.90
25346;DHT22;13300;51.032;3.710;2023-08-06T11:24:43;15.50;99.90
25346;DHT22;13300;51.032;3.710;2023-08-06T11:27:12;15.30;99.90
25346;DHT22;13300;51.032;3.710;2023-08-06T11:29:38;15.30;99.90
25346;DHT22;13300;51.032;3.710;2023-08-06T11:32:04;15.40;99.90
25346;DHT22;13300;51.032;3.710;2023-08-06T11:34:30;15.50;99.90
25346;DHT22;13300;51.032;3.710;2023-08-06T11:36:56;15.60;99.90
25346;DHT22;13300;51.032;3.710;2023-08-06T11:39:22;15.80;99.90
25346;DHT22;13300;51.032;3.710;2023-08-06T11:41:47;16.00;99.90
25346;DHT22;13300;51.032;3.710;2023-08-06T11:44:13;16.10;99.90
25346;DHT22;13300;51.032;3.710;2023-08-06T11:46:57;16.40;99.90
25346;DHT22;13300;51.032;3.710;2023-08-06T11:49:41;16.70;99.90
25346;DHT22;13300;51.032;3.710;2023-08-06T11:52:10;17.20;99.90
25346;DHT22;13300;51.032;3.710;2023-08-06T11:54:37;17.40;99.90
25346;DHT22;13300;51.032;3.710;2023-08-06T11:57:03;17.30;99.90
25346;DHT22;13300;51.032;3.710;2023-08-06T11:59:30;17.10;99.90
25346;DHT22;13300;51.032;3.710;2023-08-06T12:01:55;16.80;99.90
25346;DHT22;13300;51.032;3.710;2023-08-06T12:04:21;16.30;99.90
25346;DHT22;13300;51.032;3.710;2023-08-06T12:06:46;16.10;99.90
25346;DHT22;13300;51.032;3.710;2023-08-06T12:09:12;16.10;99.90
25346;DHT22;13300;51.032;3.710;2023-08-06T12:11:37;16.40;99.90
25346;DHT22;13300;51.032;3.710;2023-08-06T12:14:03;16.80;99.90
25346;DHT22;13300;51.032;3.710;2023-08-06T12:16:28;17.20;99.90
25346;DHT22;13300;51.032;3.710;2023-08-06T12:18:54;17.20;99.90
25346;DHT22;13300;51.032;3.710;2023-08-06T12:21:19;17.10;99.90
25346;DHT22;13300;51.032;3.710;2023-08-06T12:23:45;17.10;99.90
25346;DHT22;13300;51.032;3.710;2023-08-06T12:26:11;17.30;99.90
25346;DHT22;13300;51.032;3.710;2023-08-06T12:28:36;17.40;99.90
25346;DHT22;13300;51.032;3.710;2023-08-06T12:31:02;17.30;99.90
25346;DHT22;13300;51.032;3.710;2023-08-06T12:33:27;17.10;99.90
25346;DHT22;13300;51.032;3.710;2023-08-06T12:35:53;16.90;99.90
25346;DHT22;13300;51.032;3.710;2023-08-06T12:38:20;16.70;99.90
25346;DHT22;13300;51.032;3.710;2023-08-06T12:40:45;16.80;99.90
25346;DHT22;13300;51.032;3.710;2023-08-06T12:43:11;17.00;99.90
25346;DHT22;13300;51.032;3.710;2023-08-06T12:45:36;17.30;99.90
25346;DHT22;13300;51.032;3.710;2023-08-06T12:48:05;17.60;99.90
25346;DHT22;13300;51.032;3.710;2023-08-06T12:50:30;17.70;99.90
25346;DHT22;13300;51.032;3.710;2023-08-06T12:52:58;17.80;99.90
25346;DHT22;13300;51.032;3.710;2023-08-06T12:55:23;18.00;99.90
25346;DHT22;13300;51.032;3.710;2023-08-06T12:57:49;18.40;99.90
25346;DHT22;13300;51.032;3.710;2023-08-06T13:00:14;18.50;99.90
25346;DHT22;13300;51.032;3.710;2023-08-06T13:02:40;18.10;99.90
25346;DHT22;13300;51.032;3.710;2023-08-06T13:05:05;18.20;99.90
25346;DHT22;13300;51.032;3.710;2023-08-06T13:07:32;18.00;99.90
25346;DHT22;13300;51.032;3.710;2023-08-06T13:09:57;17.90;99.90
25346;DHT22;13300;51.032;3.710;2023-08-06T13:12:23;17.90;99.90
25346;DHT22;13300;51.032;3.710;2023-08-06T13:14:49;17.80;99.90
25346;DHT22;13300;51.032;3.710;2023-08-06T13:17:14;17.60;99.90
25346;DHT22;13300;51.032;3.710;2023-08-06T13:19:40;17.50;99.90
25346;DHT22;13300;51.032;3.710;2023-08-06T13:22:05;17.20;99.90
25346;DHT22;13300;51.032;3.710;2023-08-06T13:24:33;16.90;99.90
25346;DHT22;13300;51.032;3.710;2023-08-06T13:27:00;16.80;99.90
25346;DHT22;13300;51.032;3.710;2023-08-06T13:29:25;16.70;99.90
25346;DHT22;13300;51.032;3.710;2023-08-06T13:31:52;16.80;99.90
25346;DHT22;13300;51.032;3.710;2023-08-06T13:34:17;16.90;99.90
25346;DHT22;13300;51.032;3.710;2023-08-06T13:36:43;16.90;99.90
25346;DHT22;13300;51.032;3.710;2023-08-06T13:39:09;17.10;99.90
25346;DHT22;13300;51.032;3.710;2023-08-06T13:41:34;17.30;99.90
25346;DHT22;13300;51.032;3.710;2023-08-06T13:44:00;17.40;99.90
25346;DHT22;13300;51.032;3.710;2023-08-06T13:46:25;17.50;99.90
25346;DHT22;13300;51.032;3.710;2023-08-06T13:48:51;17.40;99.90
25346;DHT22;13300;51.032;3.710;2023-08-06T13:51:16;17.10;99.90
25346;DHT22;13300;51.032;3.710;2023-08-06T13:53:42;17.10;99.90
25346;DHT22;13300;51.032;3.710;2023-08-06T13:56:08;16.90;99.90
25346;DHT22;13300;51.032;3.710;2023-08-06T13:58:37;16.60;99.90
25346;DHT22;13300;51.032;3.710;2023-08-06T14:01:03;16.60;99.90
25346;DHT22;13300;51.032;3.710;2023-08-06T14:03:28;16.80;99.90
25346;DHT22;13300;51.032;3.710;2023-08-06T14:05:54;17.10;99.90
25346;DHT22;13300;51.032;3.710;2023-08-06T14:08:23;17.40;99.90
25346;DHT22;13300;51.032;3.710;2023-08-06T14:10:49;17.80;99.90
25346;DHT22;13300;51.032;3.710;2023-08-06T14:13:14;18.20;99.90
25346;DHT22;13300;51.032;3.710;2023-08-06T14:15:40;18.80;99.90
25346;DHT22;13300;51.032;3.710;2023-08-06T14:18:09;19.50;99.90
25346;DHT22;13300;51.032;3.710;2023-08-06T14:20:34;20.30;99.90
25346;DHT22;13300;51.032;3.710;2023-08-06T14:23:00;20.70;99.90
25346;DHT22;13300;51.032;3.710;2023-08-06T14:25:25;20.80;99.90
25346;DHT22;13300;51.032;3.710;2023-08-06T14:27:51;21.10;99.90
25346;DHT22;13300;51.032;3.710;2023-08-06T14:30:16;20.90;99.90
25346;DHT22;13300;51.032;3.710;2023-08-06T14:32:42;20.60;99.90
25346;DHT22;13300;51.032;3.710;2023-08-06T14:35:07;20.30;99.90
25346;DHT22;13300;51.032;3.710;2023-08-06T14:37:33;20.00;99.90
25346;DHT22;13300;51.032;3.710;2023-08-06T14:39:59;19.90;99.90
25346;DHT22;13300;51.032;3.710;2023-08-06T14:42:24;20.20;99.90
25346;DHT22;13300;51.032;3.710;2023-08-06T14:44:50;20.40;99.90
25346;DHT22;13300;51.032;3.710;2023-08-06T14:47:16;20.60;99.90
25346;DHT22;13300;51.032;3.710;2023-08-06T14:49:41;21.10;99.90
25346;DHT22;13300;51.032;3.710;2023-08-06T14:52:07;21.20;99.90
25346;DHT22;13300;51.032;3.710;2023-08-06T14:54:32;21.00;99.90
25346;DHT22;13300;51.032;3.710;2023-08-06T14:56:58;20.60;99.90
25346;DHT22;13300;51.032;3.710;2023-08-06T14:59:24;20.30;99.90
25346;DHT22;13300;51.032;3.710;2023-08-06T15:01:49;19.90;99.90
25346;DHT22;13300;51.032;3.710;2023-08-06T15:04:16;19.50;99.90
25346;DHT22;13300;51.032;3.710;2023-08-06T15:06:42;19.30;99.90
25346;DHT22;13300;51.032;3.710;2023-08-06T15:09:07;19.40;99.90
25346;DHT22;13300;51.032;3.710;2023-08-06T15:11:33;19.70;99.90
25346;DHT22;13300;51.032;3.710;2023-08-06T15:13:58;20.00;99.90
25346;DHT22;13300;51.032;3.710;2023-08-06T15:16:26;20.30;99.90
25346;DHT22;13300;51.032;3.710;2023-08-06T15:18:52;20.30;99.90
25346;DHT22;13300;51.032;3.710;2023-08-06T15:21:17;20.40;99.90
25346;DHT22;13300;51.032;3.710;2023-08-06T15:23:43;20.40;99.90
25346;DHT22;13300;51.032;3.710;2023-08-06T15:26:08;20.40;99.90
25346;DHT22;13300;51.032;3.710;2023-08-06T15:28:34;20.50;99.90
25346;DHT22;13300;51.032;3.710;2023-08-06T15:31:00;20.40;99.90
25346;DHT22;13300;51.032;3.710;2023-08-06T15:33:26;20.10;99.90
25346;DHT22;13300;51.032;3.710;2023-08-06T15:35:52;20.00;99.90
25346;DHT22;13300;51.032;3.710;2023-08-06T15:38:17;19.80;99.90
25346;DHT22;13300;51.032;3.710;2023-08-06T15:40:43;19.40;99.90